Latest Weather Observations for Broken Hill Airport

IDN60801

Issued at 8:32 pm EST Friday 1 July 2022 (issued every 10 minutes, with the page automatically refreshed every 10 minutes)

About weather observations | Map of weather stations | Latest weather observations for NSW | Other Formats
Station Details ID: 047048 Name: BROKEN HILL AIRPORT AWS Lat: -32.00 Lon: 141.47 Height: 281.3 m
Data from the previous 72 hours. | See also: Recent months at Broken Hill Airport

Observations are collected in the New South Wales time zone (Eastern Standard Time) which includes daylight savings in the summer period. Therefore 'Rain since 9am' totals and other values are based on the New South Wales time zone, which may differ from local time.

Date/Time
EST
Temp
°C
App
Temp
°C
Dew
Point
°C
Rel
Hum
%
Delta-T
°C
Wind Press
QNH
hPa
Press
MSL
hPa
Rain since
9am
mm
Dir  Spd
km/h
Gust
km/h
Spd
kts
Gust
kts
01/08:30pm 6.6 1.5 3.0 78 1.5 S 19 22 10 12 1029.4 1029.7 0.0
01/08:00pm 7.0 1.9 3.3 77 1.6 S 19 24 10 13 1029.1 1029.4 0.0
01/07:30pm 6.6 2.3 3.0 78 1.5 S 15 19 8 10 1028.7 1029.0 0.0
01/07:00pm 6.6 2.3 3.0 78 1.5 S 15 17 8 9 1028.6 1028.9 0.0
01/06:30pm 7.9 3.3 3.6 74 1.9 S 17 19 9 10 1028.3 1028.6 0.0
01/06:00pm 9.0 3.8 3.6 69 2.4 S 20 24 11 13 1028.0 1028.3 0.0
01/05:30pm 10.3 4.5 4.5 67 2.6 S 24 32 13 17 1027.9 1028.2 0.0
01/05:00pm 11.0 4.8 4.5 64 3.0 S 26 33 14 18 1027.6 1027.9 0.0
01/04:30pm 11.1 3.8 4.3 63 3.1 S 32 43 17 23 1027.3 1027.6 0.0
01/04:00pm 11.9 4.9 4.2 59 3.5 S 30 41 16 22 1027.5 1027.8 0.0
01/03:30pm 11.5 4.2 4.3 61 3.3 S 32 39 17 21 1027.5 1027.8 0.0
01/03:00pm 11.8 4.3 4.5 61 3.3 S 33 44 18 24 1027.4 1027.7 0.0
01/02:30pm 11.9 4.4 4.6 61 3.4 S 33 43 18 23 1027.6 1027.9 0.0
01/02:00pm 11.4 4.5 4.8 64 3.0 S 30 39 16 21 1027.8 1028.1 0.0
01/01:30pm 11.2 4.8 5.1 66 2.8 S 28 37 15 20 1028.2 1028.5 0.0
01/01:00pm 10.9 4.8 4.8 66 2.8 S 26 37 14 20 1028.6 1028.9 0.0
01/12:30pm 10.2 4.5 5.0 70 2.4 SSW 24 32 13 17 1029.1 1029.4 0.0
01/12:00pm 9.8 3.8 5.2 73 2.1 S 26 33 14 18 1029.1 1029.4 0.0
01/11:30am 9.3 3.3 5.3 76 1.8 SSW 26 30 14 16 1029.1 1029.4 0.0
01/11:00am 9.4 4.2 5.4 76 1.8 S 22 28 12 15 1029.5 1029.8 0.0
01/10:30am 8.4 4.1 5.2 80 1.5 S 17 24 9 13 1029.8 1030.2 0.0
01/10:00am 7.3 2.6 5.0 85 1.0 SSW 19 22 10 12 1029.4 1029.7 0.0
01/09:35am 6.0 1.9 4.6 91 0.6 SSW 15 20 8 11 1029.2 1029.5 0.0
01/09:30am 5.8 1.8 4.8 93 0.4 SSW 15 20 8 11 1029.3 1029.6 0.0
01/09:00am 4.4 0.6 4.1 98 0.1 SSW 13 19 7 10 1029.3 1029.6 0.0
01/08:30am 3.6 0.1 3.3 98 0.1 SW 11 13 6 7 1029.1 1029.4 0.0
01/08:00am 3.9 -0.3 3.6 98 0.1 SSW 15 20 8 11 1028.1 1028.3 0.0
01/07:30am 4.2 -0.4 3.9 98 0.1 SSW 17 24 9 13 1027.7 1027.9 0.0
01/07:12am 4.5 0.0 4.2 98 0.1 SSW 17 20 9 11 1027.4 1027.6 0.0
01/07:00am 4.7 0.2 4.4 98 0.1 SSW 17 24 9 13 1027.3 1027.5 0.0
01/06:30am 4.9 1.6 4.6 98 0.1 SSW 11 15 6 8 1027.3 1027.5 0.0
01/06:29am 4.9 1.6 4.6 98 0.1 SW 11 15 6 8 1027.2 1027.4 0.0
01/06:00am 4.7 1.8 4.4 98 0.1 SSW 9 11 5 6 1027.5 1027.7 0.0
01/05:51am 4.7 1.8 4.4 98 0.1 SSW 9 13 5 7 1027.5 1027.7 0.0
01/05:30am 4.3 1.3 4.0 98 0.1 SW 9 11 5 6 1027.4 1027.6 0.0
01/05:00am 4.6 1.3 4.3 98 0.1 SSW 11 15 6 8 1027.1 1027.3 0.0
01/04:30am 3.6 0.1 3.3 98 0.1 SW 11 13 6 7 1027.0 1027.2 0.0
01/04:06am 3.6 0.1 3.3 98 0.1 SSW 11 15 6 8 1027.0 1027.2 0.0
01/04:00am 2.9 -0.8 2.5 97 0.2 SW 11 13 6 7 1027.1 1027.3 0.0
01/03:30am 3.2 -0.1 2.6 96 0.2 SW 9 11 5 6 1027.0 1027.2 0.0
01/03:09am 3.1 -0.3 2.1 93 0.4 SSW 9 11 5 6 1027.0 1027.2 0.0
01/03:00am 3.6 0.3 2.6 93 0.4 SSW 9 11 5 6 1026.8 1027.0 0.0
01/02:30am 4.3 1.1 3.3 93 0.4 SSW 9 13 5 7 1027.1 1027.3 0.0
01/02:00am 4.5 1.3 3.3 92 0.5 SSW 9 13 5 7 1026.6 1026.9 0.0
01/01:30am 4.9 2.2 3.7 92 0.5 SSW 7 9 4 5 1026.5 1026.8 0.0
01/01:00am 4.8 2.6 3.5 91 0.5 S 4 6 2 3 1026.5 1026.8 0.0
01/12:30am 5.0 1.5 3.7 91 0.5 SSW 11 15 6 8 1026.8 1027.0 0.0
01/12:00am 5.8 3.2 4.1 89 0.7 S 7 9 4 5 1026.6 1026.9 0.0
 
Date/Time
EST
Temp
°C
App
Temp
°C
Dew
Point
°C
Rel
Hum
%
Delta-T
°C
Wind Press
QNH
hPa
Press
MSL
hPa
Rain since
9am
mm
Dir  Spd
km/h
Gust
km/h
Spd
kts
Gust
kts
30/11:30pm 5.7 4.0 3.9 88 0.8 SSE 2 6 1 3 1026.5 1026.8 0.0
30/11:00pm 6.2 3.7 3.9 85 1.0 SSW 6 7 3 4 1026.6 1026.9 0.0
30/10:30pm 7.1 3.8 4.4 83 1.2 S 11 13 6 7 1026.4 1026.7 0.0
30/10:00pm 8.2 4.6 5.1 81 1.4 S 13 13 7 7 1026.3 1026.6 0.0
30/09:30pm 9.4 6.2 5.2 75 1.9 S 11 15 6 8 1026.0 1026.3 0.0
30/09:00pm 10.1 7.0 5.5 73 2.1 SSW 11 13 6 7 1025.7 1026.0 0.0
30/08:30pm 10.7 7.3 5.7 71 2.3 S 13 19 7 10 1025.4 1025.6 0.0
30/08:00pm 10.3 6.7 5.1 70 2.4 S 13 15 7 8 1025.2 1025.4 0.0
30/07:30pm 9.4 7.1 4.6 72 2.2 SSE 6 7 3 4 1024.7 1024.9 0.0
30/07:00pm 9.4 6.8 4.2 70 2.3 S 7 9 4 5 1024.3 1024.5 0.0
30/06:30pm 9.3 6.2 3.7 68 2.5 S 9 11 5 6 1023.9 1024.1 0.0
30/06:00pm 10.6 7.2 3.9 63 3.0 S 11 11 6 6 1023.5 1023.7 0.0
30/05:30pm 12.8 8.4 4.5 57 3.9 S 17 20 9 11 1023.2 1023.4 0.0
30/05:00pm 12.9 8.8 4.1 55 4.0 SSW 15 20 8 11 1022.8 1023.1 0.0
30/04:30pm 13.0 8.8 3.7 53 4.2 SW 15 20 8 11 1022.8 1023.1 0.0
30/04:00pm 13.9 9.6 3.4 49 4.8 SW 15 20 8 11 1022.6 1022.8 0.0
30/03:30pm 14.7 10.9 4.1 49 4.9 SSW 13 20 7 11 1022.6 1022.8 0.0
30/03:00pm 14.5 10.9 5.0 53 4.5 SW 13 19 7 10 1022.7 1023.0 0.0
30/02:30pm 13.5 9.8 4.4 54 4.2 SSW 13 20 7 11 1022.6 1022.8 0.0
30/02:00pm 14.2 9.8 4.8 53 4.4 S 17 22 9 12 1022.8 1023.1 0.0
30/01:30pm 13.9 9.3 5.5 57 4.0 SSW 19 24 10 13 1023.3 1023.5 0.0
30/01:00pm 13.7 9.3 4.8 55 4.2 SW 17 26 9 14 1023.4 1023.6 0.0
30/12:30pm 13.6 9.3 5.3 57 3.9 SW 17 24 9 13 1023.6 1023.8 0.0
30/12:00pm 13.0 8.7 5.2 59 3.7 SSW 17 24 9 13 1023.8 1024.0 0.0
30/11:30am 13.3 10.0 6.4 63 3.3 SSW 13 20 7 11 1024.0 1024.2 0.0
30/11:00am 12.3 8.1 5.5 63 3.2 SW 17 22 9 12 1024.1 1024.3 0.0
30/10:30am 11.9 7.8 6.0 67 2.8 SW 17 20 9 11 1024.2 1024.4 0.0
30/10:00am 11.1 7.6 5.4 68 2.6 WSW 13 17 7 9 1024.1 1024.3 0.0
30/09:30am 9.8 6.5 4.4 69 2.4 WSW 11 15 6 8 1024.0 1024.2 0.0
30/09:00am 8.5 5.0 3.4 70 2.2 WSW 11 13 6 7 1023.8 1024.0 0.0
30/08:30am 5.0 2.1 2.4 83 1.1 WSW 7 9 4 5 1023.5 1023.7 0.0
30/08:00am 4.7 1.7 2.2 84 1.0 WSW 7 7 4 4 1023.4 1023.6 0.0
30/07:30am 4.1 1.0 1.6 84 1.0 WSW 7 9 4 5 1023.1 1023.3 0.0
30/07:00am 4.5 1.7 2.0 84 1.0 W 6 7 3 4 1022.8 1023.1 0.0
30/06:30am 4.0 1.0 0.5 78 1.4 W 6 6 3 3 1022.5 1022.7 0.0
30/06:00am 4.8 1.8 1.8 81 1.2 W 7 9 4 5 1022.4 1022.6 0.0
30/05:30am 4.0 1.3 0.2 76 1.5 W 4 7 2 4 1022.0 1022.2 0.0
30/05:00am 4.3 0.3 0.5 76 1.5 W 11 13 6 7 1021.9 1022.1 0.0
30/04:30am 5.6 1.6 0.6 70 2.0 WNW 11 13 6 7 1022.0 1022.2 0.0
30/04:00am 6.3 2.3 0.6 67 2.3 WNW 11 13 6 7 1022.1 1022.3 0.0
30/03:30am 6.7 3.2 1.2 68 2.2 WNW 9 11 5 6 1021.9 1022.1 0.0
30/03:00am 7.0 3.1 1.1 66 2.4 WNW 11 13 6 7 1021.9 1022.1 0.0
30/02:30am 7.0 3.1 1.1 66 2.4 WNW 11 13 6 7 1021.9 1022.1 0.0
30/02:00am 7.2 3.7 1.1 65 2.5 NW 9 13 5 7 1021.9 1022.1 0.0
30/01:30am 7.9 3.9 0.6 60 3.0 NW 11 13 6 7 1021.8 1022.0 0.0
30/01:00am 8.4 4.5 1.3 61 2.9 NW 11 15 6 8 1022.0 1022.2 0.0
30/12:30am 7.3 3.8 1.4 66 2.4 WNW 9 11 5 6 1021.8 1022.0 0.0
30/12:00am 7.9 4.9 1.7 65 2.6 WNW 7 9 4 5 1021.7 1021.9 0.0
 
Date/Time
EST
Temp
°C
App
Temp
°C
Dew
Point
°C
Rel
Hum
%
Delta-T
°C
Wind Press
QNH
hPa
Press
MSL
hPa
Rain since
9am
mm
Dir  Spd
km/h
Gust
km/h
Spd
kts
Gust
kts
29/11:30pm 8.1 4.7 1.7 64 2.7 WNW 9 13 5 7 1021.8 1022.0 0.0
29/11:00pm 8.8 5.1 2.6 65 2.6 WNW 11 13 6 7 1022.0 1022.2 0.0
29/10:30pm 8.9 5.3 2.9 66 2.6 W 11 13 6 7 1021.9 1022.1 0.0
29/10:00pm 9.0 5.4 3.2 67 2.5 WNW 11 15 6 8 1021.9 1022.1 0.0
29/09:30pm 8.5 5.7 2.9 68 2.4 W 7 9 4 5 1021.8 1022.0 0.0
29/09:00pm 8.9 6.2 2.9 66 2.6 N 6 7 3 4 1021.8 1022.0 0.0
29/08:30pm 8.9 7.4 2.9 66 2.6 CALM 0 2 0 1 1021.8 1022.0 0.0
29/08:00pm 9.6 6.9 2.5 61 3.1 NW 6 7 3 4 1021.9 1022.1 0.0
29/07:30pm 9.9 7.0 2.5 60 3.2 NW 7 11 4 6 1022.1 1022.3 0.0
29/07:00pm 9.7 6.9 2.1 59 3.2 NW 6 9 3 5 1022.1 1022.3 0.0
29/06:30pm 10.6 7.8 1.9 55 3.7 NNW 6 7 3 4 1021.6 1021.8 0.0
29/06:00pm 10.9 7.5 2.0 54 3.8 NW 9 11 5 6 1021.7 1021.9 0.0
29/05:30pm 11.4 8.0 1.6 51 4.2 NNW 9 11 5 6 1021.8 1022.0 0.0
29/05:00pm 11.9 8.8 1.5 49 4.5 NNW 7 13 4 7 1021.4 1021.6 0.0
29/04:30pm 12.0 7.8 1.9 50 4.4 WNW 13 17 7 9 1021.5 1021.7 0.0
29/04:00pm 12.6 8.0 1.3 46 4.9 WNW 15 20 8 11 1021.2 1021.4 0.0
29/03:30pm 12.9 8.6 1.0 44 5.1 NW 13 17 7 9 1021.2 1021.4 0.0
29/03:00pm 13.0 9.1 1.4 45 5.0 NW 11 15 6 8 1020.9 1021.1 0.0
29/02:30pm 13.1 8.8 0.8 43 5.3 NW 13 19 7 10 1021.3 1021.5 0.0
29/02:00pm 13.3 8.6 1.0 43 5.3 NW 15 24 8 13 1022.2 1022.4 0.0
29/01:30pm 13.3 8.6 0.7 42 5.4 NW 15 20 8 11 1022.3 1022.5 0.0
29/01:00pm 13.2 8.8 0.6 42 5.4 NW 13 24 7 13 1022.8 1023.1 0.0
29/12:30pm 13.3 8.7 1.6 45 5.1 WNW 15 22 8 12 1023.6 1023.8 0.0
29/12:00pm 13.2 8.1 0.9 43 5.3 NW 17 24 9 13 1024.1 1024.3 0.0
29/11:30am 12.5 8.2 1.2 46 4.9 NNW 13 17 7 9 1024.4 1024.6 0.0
29/11:00am 12.3 8.3 0.4 44 5.0 NNW 11 17 6 9 1024.7 1024.9 0.0
29/10:30am 11.5 8.1 1.7 51 4.2 NNE 9 13 5 7 1024.7 1024.9 0.0
29/10:00am 10.0 5.8 1.6 56 3.5 NNE 13 17 7 9 1024.7 1024.9 0.0
29/09:30am 8.6 4.9 2.2 64 2.7 NNE 11 15 6 8 1024.8 1025.0 0.0
29/09:00am 7.2 3.1 2.1 70 2.1 NNE 13 15 7 8 1024.3 1024.5 0.0
29/08:30am 6.1 2.0 2.4 77 1.5 NE 13 17 7 9 1024.5 1024.7 0.0
29/08:00am 4.0 0.1 1.4 83 1.0 ENE 11 13 6 7 1024.2 1024.4 0.0
29/07:30am 4.0 0.4 0.7 79 1.3 NNE 9 11 5 6 1024.4 1024.6 0.0
29/07:00am 4.4 1.3 1.1 79 1.3 NE 7 9 4 5 1024.4 1024.6 0.0
29/06:30am 4.3 0.3 0.6 77 1.4 NE 11 13 6 7 1024.1 1024.3 0.0
29/06:00am 6.5 3.2 2.4 75 1.7 NNE 9 11 5 6 1024.2 1024.4 0.0
29/05:30am 5.2 2.2 1.1 75 1.6 N 6 7 3 4 1024.2 1024.4 0.0
29/05:00am 5.8 2.0 1.7 75 1.7 NNE 11 13 6 7 1024.0 1024.2 0.0
29/04:30am 6.3 2.1 1.8 73 1.8 NNE 13 15 7 8 1024.0 1024.2 0.0
29/04:00am 4.9 0.7 1.6 79 1.3 ENE 13 15 7 8 1024.2 1024.4 0.0
29/03:30am 6.8 3.0 1.9 71 2.0 N 11 13 6 7 1025.0 1025.2 0.0
29/03:00am 5.6 1.5 2.1 78 1.4 NE 13 15 7 8 1024.8 1025.0 0.0
29/02:30am 5.3 1.1 1.8 78 1.4 NE 13 15 7 8 1025.1 1025.3 0.0
29/02:00am 5.0 1.1 0.9 75 1.6 NE 11 11 6 6 1025.1 1025.3 0.0
29/01:30am 5.2 1.4 1.7 78 1.4 ENE 11 11 6 6 1025.1 1025.3 0.0
29/01:00am 3.8 0.6 0.7 80 1.2 ENE 7 9 4 5 1025.2 1025.4 0.0
29/12:30am 4.4 2.6 1.1 79 1.3 CALM 0 0 0 0 1025.8 1026.1 0.0
29/12:00am 4.4 2.2 0.9 78 1.4 NW 2 6 1 3 1026.2 1026.5 0.0
 
Date/Time
EST
Temp
°C
App
Temp
°C
Dew
Point
°C
Rel
Hum
%
Delta-T
°C
Wind Press
QNH
hPa
Press
MSL
hPa
Rain since
9am
mm
Dir  Spd
km/h
Gust
km/h
Spd
kts
Gust
kts
28/11:30pm 6.7 3.8 1.6 70 2.1 NW 6 7 3 4 1026.3 1026.6 0.0
28/11:00pm 6.4 3.1 2.5 76 1.6 NNE 9 13 5 7 1026.4 1026.7 0.0
28/10:30pm 5.3 2.1 0.9 73 1.7 ENE 7 9 4 5 1026.0 1026.3 0.0
28/10:00pm 5.7 1.5 1.4 74 1.7 ENE 13 13 7 7 1026.3 1026.6 0.0
28/09:30pm 7.1 3.7 1.8 69 2.2 NE 9 11 5 6 1026.5 1026.8 0.0

Other formats

Comma delimited format used in spreadsheet applications
http://www.bom.gov.au/fwo/IDN60801/IDN60801.94691.axf

JavaScript Object Notation format (JSON) in row-major order
http://www.bom.gov.au/fwo/IDN60801/IDN60801.94691.json

Data quality

Most of these data are generated automatically and are frequently updated. Quality checks on data are not normally performed. It is possible for incorrect values to appear. Refer to information at About Latest Weather Observations and please check the disclaimer before using these data.